Schedule Details


Flight Number: CTN471
Departure: Charles-de-gaulle (LFPG) at 18:30
Arrival: Franjo Tudman (LDZA) at 20:20
Route: LANVI UM164 EPL UN491 DEGES UN871 MADEB UN606 ELMEM UL607 GEDSO DCT VEKEN Y177 DEGUM DCT ARGOM

Weather Information
LFPG 171100Z 35003KT 290V060 CAVOK 19/13 Q1019 NOSIG
LDZA 171100Z VRB01KT CAVOK 19/13 Q1020 NOSIG
Schedule Frequency

Route Map